Time;durP1;ratioP1;P1;durP2;ratioP2;P2;SDS_P1;SDS_P2;PMS_P1;PMS_P2;Temp;Humidity;BMP_temperature;BMP_pressure;BME280_temperature;BME280_humidity;BME280_pressure;Samples;Min_cycle;Max_cycle;Signal;HPM_P1;HPM_P2
2022/09/24 00:00:51;;;;;;;4.68;2.78;;;;;;;22.73;47.91;98920.25;2094442;28;20534;-47
2022/09/24 00:01:52;;;;;;;7.57;3.10;;;;;;;22.70;47.83;98920.69;2097394;28;20169;-46
2022/09/24 00:02:55;;;;;;;4.95;2.17;;;;;;;22.71;47.87;98916.94;2093786;28;20056;-51
2022/09/24 00:03:59;;;;;;;5.18;2.50;;;;;;;22.71;47.97;98922.38;2088497;28;20080;-54
2022/09/24 00:04:59;;;;;;;4.85;3.30;;;;;;;22.70;47.95;98918.00;2089563;28;20052;-52
2022/09/24 00:06:02;;;;;;;4.22;3.05;;;;;;;22.71;47.77;98922.38;2090557;28;20052;-53
2022/09/24 00:07:04;;;;;;;5.28;2.75;;;;;;;22.70;47.95;98921.50;2089252;28;20040;-55
2022/09/24 00:08:05;;;;;;;8.43;3.70;;;;;;;22.70;47.83;98924.22;2091249;28;20040;-47
2022/09/24 00:09:08;;;;;;;7.68;3.05;;;;;;;22.70;47.78;98926.91;2090751;28;20048;-51
2022/09/24 00:10:09;;;;;;;6.38;2.42;;;;;;;22.70;47.95;98926.91;2088156;28;20055;-55
2022/09/24 00:11:11;;;;;;;7.28;2.78;;;;;;;22.69;47.98;98921.75;2094673;28;20055;-48
2022/09/24 00:12:13;;;;;;;3.88;2.70;;;;;;;22.68;47.87;98920.09;2093384;28;20063;-51
2022/09/24 00:13:17;;;;;;;4.88;2.63;;;;;;;22.69;47.81;98924.44;2090062;28;20049;-47
2022/09/24 00:14:18;;;;;;;5.28;2.70;;;;;;;22.69;48.03;98927.16;2089438;28;20043;-48
2022/09/24 00:15:19;;;;;;;5.10;2.47;;;;;;;22.68;47.87;98923.63;2091166;28;21088;-51
2022/09/24 00:16:22;;;;;;;7.40;2.90;;;;;;;22.68;48.06;98920.94;2088941;28;20044;-53
2022/09/24 00:17:24;;;;;;;6.30;2.88;;;;;;;22.71;47.67;98922.38;2089534;28;20052;-48
2022/09/24 00:18:27;;;;;;;4.22;3.03;;;;;;;22.69;47.95;98924.44;2089364;28;20391;-46
2022/09/24 00:19:29;;;;;;;4.75;2.33;;;;;;;22.69;47.90;98922.56;2088245;28;20051;-47
2022/09/24 00:20:31;;;;;;;5.32;2.33;;;;;;;22.68;47.83;98918.22;2088208;28;20046;-46
2022/09/24 00:21:36;;;;;;;6.68;3.10;;;;;;;22.69;48.02;98916.34;2090474;28;21075;-47
2022/09/24 00:22:37;;;;;;;5.35;2.33;;;;;;;22.66;47.96;98919.50;2086247;28;20051;-46
2022/09/24 00:23:38;;;;;;;;;;;;;;;22.59;48.11;98918.72;2092025;28;20434;-48
2022/09/24 00:27:20;;;;;;;5.47;2.10;;;;;;;22.60;48.17;98905.00;2083365;28;20696;-47
2022/09/24 00:28:21;;;;;;;6.97;3.13;;;;;;;22.62;48.02;98904.75;2084340;28;20049;-47
2022/09/24 00:29:24;;;;;;;4.05;2.42;;;;;;;22.64;47.96;98908.06;2080325;28;20763;-46
2022/09/24 00:30:25;;;;;;;3.95;2.10;;;;;;;22.64;48.06;98908.06;2080658;28;20121;-46
2022/09/24 00:31:27;;;;;;;5.45;2.72;;;;;;;22.64;47.99;98917.00;2083050;28;20087;-46
2022/09/24 00:32:27;;;;;;;6.80;2.85;;;;;;;22.65;48.00;98912.41;2083050;28;21787;-49
2022/09/24 00:33:32;;;;;;;5.63;2.78;;;;;;;22.66;48.02;98912.22;2080140;28;20044;-46
2022/09/24 00:34:33;;;;;;;5.90;2.70;;;;;;;22.65;47.97;98918.69;2083061;28;20052;-50
2022/09/24 00:35:36;;;;;;;4.15;2.60;;;;;;;22.66;47.81;98914.09;2083764;28;20787;-47
2022/09/24 00:36:37;;;;;;;7.93;2.55;;;;;;;22.65;47.94;98915.97;2079734;28;20053;-47
2022/09/24 00:37:39;;;;;;;5.05;2.90;;;;;;;22.65;48.06;98907.88;2081506;28;20044;-48
2022/09/24 00:38:39;;;;;;;6.90;2.58;;;;;;;22.65;47.99;98909.72;2086118;28;20047;-50
2022/09/24 00:39:41;;;;;;;6.88;2.58;;;;;;;22.65;48.03;98912.41;2092087;28;20098;-50
2022/09/24 00:40:42;;;;;;;7.85;2.83;;;;;;;22.65;47.94;98910.56;2092623;28;20053;-46
2022/09/24 00:41:45;;;;;;;5.30;2.45;;;;;;;22.65;47.94;98907.00;2090273;28;20044;-46
2022/09/24 00:42:46;;;;;;;6.93;3.17;;;;;;;22.65;48.06;98912.41;2091371;28;20117;-46
2022/09/24 00:43:49;;;;;;;2.97;2.15;;;;;;;22.65;47.82;98912.41;2087142;28;20109;-47
2022/09/24 00:44:53;;;;;;;6.10;2.40;;;;;;;22.64;47.94;98905.38;2088796;28;20101;-46
2022/09/24 00:45:59;;;;;;;3.33;1.95;;;;;;;22.64;48.04;98903.47;2081228;28;21508;-49
2022/09/24 00:47:00;;;;;;;3.92;2.60;;;;;;;22.63;48.08;98909.13;2084106;28;20075;-49
2022/09/24 00:48:01;;;;;;;;;;;;;;;22.53;48.38;98907.75;2091505;28;20040;-46
2022/09/24 00:49:09;;;;;;;5.10;2.00;;;;;;;22.57;48.19;98904.63;2088581;28;19931;-46
2022/09/24 00:50:18;;;;;;;3.90;1.88;;;;;;;22.58;48.10;98907.09;2093521;28;20049;-48
2022/09/24 00:51:21;;;;;;;3.65;1.70;;;;;;;22.59;48.15;98897.09;2091308;28;20044;-48
2022/09/24 00:52:23;;;;;;;4.97;2.00;;;;;;;22.61;48.09;98900.41;2090291;28;20336;-50
2022/09/24 00:53:27;;;;;;;5.07;2.97;;;;;;;22.61;48.03;98897.72;2087103;28;20056;-47
2022/09/24 00:54:29;;;;;;;2.78;1.70;;;;;;;22.63;47.95;98895.63;2087608;28;20037;-47
2022/09/24 00:55:32;;;;;;;5.97;2.55;;;;;;;22.62;48.11;98891.25;2090852;28;20598;-47
2022/09/24 00:56:37;;;;;;;3.85;2.38;;;;;;;22.63;48.01;98901.84;2088904;28;20047;-50
2022/09/24 00:57:41;;;;;;;4.72;2.38;;;;;;;22.62;47.96;98897.50;2084960;28;20056;-48
2022/09/24 00:58:45;;;;;;;5.53;2.55;;;;;;;22.61;48.13;98895.81;2077877;28;20644;-51
2022/09/24 00:59:46;;;;;;;4.28;2.25;;;;;;;22.61;48.12;98895.00;2080050;28;20135;-47
2022/09/24 01:00:51;;;;;;;3.58;1.92;;;;;;;22.62;48.25;98899.34;2079851;28;20052;-47
2022/09/24 01:01:58;;;;;;;3.13;1.88;;;;;;;22.62;48.12;98893.94;2081451;28;20102;-48
2022/09/24 01:03:04;;;;;;;4.57;2.20;;;;;;;22.62;47.96;98893.94;2079491;28;20053;-47
2022/09/24 01:04:07;;;;;;;6.70;2.80;;;;;;;22.61;48.18;98889.59;2086721;28;20040;-48
2022/09/24 01:05:10;;;;;;;6.13;2.30;;;;;;;22.63;48.12;98892.91;2080543;28;20154;-45
2022/09/24 01:06:11;;;;;;;5.53;2.67;;;;;;;22.62;48.07;98888.53;2081797;28;20060;-48
2022/09/24 01:07:13;;;;;;;5.13;1.90;;;;;;;22.61;48.24;98886.88;2083345;28;20063;-46
2022/09/24 01:08:17;;;;;;;3.80;2.10;;;;;;;22.59;48.15;98892.50;2085738;28;20056;-49
2022/09/24 01:09:21;;;;;;;6.47;2.75;;;;;;;22.59;48.10;98887.09;2078779;28;20072;-46
2022/09/24 01:10:46;;;;;;;5.60;2.58;;;;;;;22.59;48.14;98886.28;2085465;28;20065;-47
2022/09/24 01:11:59;;;;;;;5.28;2.47;;;;;;;22.55;48.01;98888.63;2091372;28;20045;-47
2022/09/24 01:13:09;;;;;;;4.43;2.30;;;;;;;22.56;48.13;98882.16;2092833;28;20060;-47
2022/09/24 01:14:31;;;;;;;3.60;1.85;;;;;;;22.52;48.11;98883.66;2088836;28;20174;-45
2022/09/24 01:15:38;;;;;;;3.33;1.52;;;;;;;22.56;48.14;98884.03;2089425;28;20108;-46
2022/09/24 01:16:46;;;;;;;2.78;1.95;;;;;;;22.55;48.22;98885.09;2080219;28;20103;-47
2022/09/24 01:17:54;;;;;;;3.65;1.98;;;;;;;22.57;48.12;98878.41;2089199;28;20110;-49
2022/09/24 01:19:08;;;;;;;6.05;2.13;;;;;;;22.54;48.16;98878.88;2090826;28;20055;-47
2022/09/24 01:20:38;;;;;;;4.40;2.72;;;;;;;22.53;48.23;98877.19;2088915;28;20058;-50
2022/09/24 01:21:44;;;;;;;4.32;2.35;;;;;;;22.53;48.09;98874.47;2089132;28;20091;-47
2022/09/24 01:23:00;;;;;;;4.53;1.98;;;;;;;22.54;48.23;98878.88;2090840;28;20056;-48
2022/09/24 01:24:43;;;;;;;6.15;2.38;;;;;;;22.50;48.36;98873.06;2089166;28;20051;-46
2022/09/24 01:25:58;;;;;;;3.33;1.85;;;;;;;22.49;48.37;98871.41;2083060;28;20053;-46
2022/09/24 01:27:11;;;;;;;6.45;2.53;;;;;;;22.51;48.33;98866.63;2087280;28;20048;-46
2022/09/24 01:28:27;;;;;;;3.72;1.80;;;;;;;22.51;48.20;98871.16;2083877;28;20056;-46
2022/09/24 01:29:40;;;;;;;2.85;1.88;;;;;;;22.50;48.09;98867.66;2080804;28;20056;-48
2022/09/24 01:30:42;;;;;;;3.95;1.85;;;;;;;22.52;48.32;98870.13;2088214;28;20917;-46
2022/09/24 01:31:49;;;;;;;5.38;2.25;;;;;;;22.55;48.22;98872.41;2090655;28;20055;-47
2022/09/24 01:32:53;;;;;;;3.45;2.00;;;;;;;22.53;48.24;98871.78;2091689;28;20071;-47
2022/09/24 01:33:58;;;;;;;1.88;1.42;;;;;;;22.55;48.22;98872.41;2096332;28;20726;-45
2022/09/24 01:35:02;;;;;;;4.63;1.80;;;;;;;22.53;48.10;98872.59;2090299;28;20423;-46
2022/09/24 01:36:08;;;;;;;4.93;2.25;;;;;;;22.55;48.16;98869.69;2094890;28;20114;-46
2022/09/24 01:37:13;;;;;;;3.83;1.77;;;;;;;22.53;48.26;98875.31;2094864;28;20052;-46
2022/09/24 01:38:19;;;;;;;6.88;2.45;;;;;;;22.55;48.21;98874.28;2094463;28;20124;-48
2022/09/24 01:39:21;;;;;;;3.42;2.00;;;;;;;22.54;48.23;98873.47;2090880;28;20052;-47
2022/09/24 01:40:27;;;;;;;2.65;2.17;;;;;;;22.52;48.34;98870.13;2086968;28;20512;-47
2022/09/24 01:41:28;;;;;;;3.15;1.85;;;;;;;22.51;48.27;98863.06;2085539;28;22187;-49
2022/09/24 01:42:31;;;;;;;3.08;1.92;;;;;;;22.52;48.19;98868.25;2083301;28;20102;-46
2022/09/24 01:43:32;;;;;;;3.88;2.00;;;;;;;22.51;48.21;98863.91;2086131;28;20041;-48
2022/09/24 01:44:36;;;;;;;2.72;1.40;;;;;;;22.52;48.39;98865.56;2082663;28;20052;-47
2022/09/24 01:45:40;;;;;;;3.30;1.98;;;;;;;22.53;48.26;98860.97;2082688;28;20040;-48
2022/09/24 01:46:41;;;;;;;3.08;1.92;;;;;;;22.52;48.33;98860.16;2083291;28;24140;-50
2022/09/24 01:47:44;;;;;;;4.38;1.92;;;;;;;22.53;48.24;98856.38;2092137;28;20049;-46
2022/09/24 01:48:46;;;;;;;3.58;1.55;;;;;;;22.53;48.26;98860.97;2092015;28;20055;-46
2022/09/24 01:49:50;;;;;;;3.95;2.08;;;;;;;22.52;48.15;98859.31;2091564;28;20080;-47
2022/09/24 01:50:57;;;;;;;3.42;1.65;;;;;;;22.52;48.17;98860.16;2090470;28;20059;-47
2022/09/24 01:52:03;;;;;;;2.63;1.70;;;;;;;22.51;48.27;98853.09;2092585;28;20056;-47
2022/09/24 01:53:07;;;;;;;4.38;2.13;;;;;;;22.52;48.27;98854.75;2089996;28;20676;-47
2022/09/24 01:54:16;;;;;;;4.03;1.85;;;;;;;22.53;48.18;98850.16;2087445;28;20496;-46
2022/09/24 01:55:23;;;;;;;4.00;1.92;;;;;;;22.51;48.28;98861.22;2091940;28;20040;-46
2022/09/24 01:56:31;;;;;;;3.65;1.90;;;;;;;22.51;48.23;98854.94;2094013;28;20075;-48
2022/09/24 01:57:37;;;;;;;2.67;1.77;;;;;;;22.50;48.30;98847.91;2091380;28;20052;-47
2022/09/24 01:58:44;;;;;;;4.15;1.63;;;;;;;22.50;48.21;98846.03;2094142;28;20135;-47
2022/09/24 01:59:52;;;;;;;1.88;1.35;;;;;;;22.48;48.28;98841.88;2081773;28;20065;-47
2022/09/24 02:01:04;;;;;;;2.80;1.73;;;;;;;22.48;48.26;98848.16;2087402;28;20124;-47
2022/09/24 02:02:10;;;;;;;2.65;2.10;;;;;;;22.49;48.30;98846.25;2091142;28;20043;-47
2022/09/24 02:03:17;;;;;;;5.70;1.90;;;;;;;22.49;48.24;98836.28;2090338;28;20182;-48
2022/09/24 02:04:20;;;;;;;2.67;1.70;;;;;;;22.49;48.19;98832.75;2097549;28;20051;-47
2022/09/24 02:05:29;;;;;;;2.67;1.10;;;;;;;22.50;48.20;98835.22;2094132;28;20139;-49
2022/09/24 02:06:35;;;;;;;3.42;1.98;;;;;;;22.49;48.37;98830.88;2092781;28;20118;-50
2022/09/24 02:07:42;;;;;;;2.38;1.45;;;;;;;22.48;48.25;98829.22;2090471;28;20560;-48
2022/09/24 02:08:47;;;;;;;3.75;1.80;;;;;;;22.48;48.20;98831.06;2093068;28;20051;-53
2022/09/24 02:09:48;;;;;;;5.20;1.67;;;;;;;22.47;48.15;98832.97;2085716;28;20059;-51
2022/09/24 02:10:54;;;;;;;2.80;1.50;;;;;;;22.49;48.31;98838.16;2088947;28;20235;-51
2022/09/24 02:11:58;;;;;;;2.25;1.70;;;;;;;22.47;48.26;98835.66;2089503;28;21661;-50
2022/09/24 02:13:04;;;;;;;4.05;1.80;;;;;;;22.48;48.18;98840.03;2095338;28;20052;-47
2022/09/24 02:14:09;;;;;;;3.45;1.90;;;;;;;22.49;48.33;98838.16;2085842;28;22124;-52
2022/09/24 02:15:17;;;;;;;2.58;1.55;;;;;;;22.48;48.37;98833.78;2092885;28;20045;-45
2022/09/24 02:16:24;;;;;;;1.98;1.48;;;;;;;22.48;47.96;98837.34;2088796;28;20044;-50
2022/09/24 02:17:30;;;;;;;3.72;1.42;;;;;;;22.49;48.14;98841.69;2088853;28;20504;-47
2022/09/24 02:18:35;;;;;;;3.50;1.30;;;;;;;22.48;48.22;98840.03;2093600;28;20056;-50
2022/09/24 02:19:40;;;;;;;2.60;1.80;;;;;;;22.49;48.12;98838.16;2088874;28;20109;-49
2022/09/24 02:20:43;;;;;;;2.08;1.55;;;;;;;22.47;48.24;98840.25;2087056;28;20540;-50
2022/09/24 02:21:46;;;;;;;2.55;1.60;;;;;;;22.47;48.34;98835.66;2086427;28;20052;-55
2022/09/24 02:22:49;;;;;;;3.53;1.42;;;;;;;22.47;48.19;98832.97;2089138;28;21001;-50
2022/09/24 02:23:55;;;;;;;2.72;1.20;;;;;;;22.46;48.20;98833.19;2089083;28;21074;-45
2022/09/24 02:24:58;;;;;;;4.25;1.45;;;;;;;22.47;48.37;98830.25;2090349;28;20048;-48
2022/09/24 02:26:01;;;;;;;3.70;1.52;;;;;;;22.47;48.13;98830.25;2089084;28;20071;-51
2022/09/24 02:27:02;;;;;;;2.47;1.67;;;;;;;22.44;48.41;98833.41;2090590;28;20075;-52
2022/09/24 02:28:04;;;;;;;2.00;1.65;;;;;;;22.46;48.33;98833.19;2093486;28;20056;-47
2022/09/24 02:29:05;;;;;;;1.88;1.25;;;;;;;22.46;48.19;98836.72;2092085;28;20052;-50
2022/09/24 02:30:09;;;;;;;3.42;1.60;;;;;;;22.45;48.31;98840.47;2090481;28;20490;-51
2022/09/24 02:31:17;;;;;;;4.18;1.63;;;;;;;22.44;48.21;98835.28;2089505;28;20643;-54
2022/09/24 02:32:21;;;;;;;5.18;1.83;;;;;;;22.43;48.40;98829.06;2088354;28;20426;-47
2022/09/24 02:34:48;;;;;;;2.33;1.65;;;;;;;22.44;48.25;98835.28;2091125;28;20159;-48
2022/09/24 02:35:52;;;;;;;4.63;1.55;;;;;;;22.43;48.38;98839.06;2092023;28;22613;-54
2022/09/24 02:36:54;;;;;;;1.88;1.15;;;;;;;22.44;48.26;98840.69;2090054;28;20060;-48
2022/09/24 02:37:56;;;;;;;2.25;1.50;;;;;;;22.43;48.18;98839.06;2086128;28;20048;-49
2022/09/24 02:38:57;;;;;;;4.60;1.70;;;;;;;22.44;48.26;98829.88;2095733;28;20632;-53
2022/09/24 02:39:59;;;;;;;3.30;1.80;;;;;;;22.45;48.31;98840.47;2090446;28;20068;-47
2022/09/24 02:41:00;;;;;;;2.40;1.60;;;;;;;22.44;48.30;98836.13;2086347;28;20662;-49
2022/09/24 02:42:04;;;;;;;3.58;1.55;;;;;;;22.45;48.24;98840.47;2082972;28;20043;-51
2022/09/24 02:43:05;;;;;;;2.78;1.27;;;;;;;22.42;48.29;98838.22;2091790;28;20047;-52
2022/09/24 02:44:06;;;;;;;1.95;1.30;;;;;;;22.42;48.38;98829.28;2089519;28;20487;-54
2022/09/24 02:45:08;;;;;;;3.15;1.08;;;;;;;22.44;48.24;98829.88;2092707;28;20723;-56
2022/09/24 02:46:11;;;;;;;4.25;1.50;;;;;;;22.45;48.34;98840.47;2090678;28;20104;-46
2022/09/24 02:47:13;;;;;;;2.63;1.30;;;;;;;22.44;48.29;98835.28;2095073;28;20589;-46
2022/09/24 02:48:14;;;;;;;2.20;1.80;;;;;;;22.41;48.25;98831.16;2090987;28;20041;-51
2022/09/24 02:49:16;;;;;;;2.42;1.92;;;;;;;22.44;48.14;98836.13;2087964;28;20595;-55
2022/09/24 02:50:18;;;;;;;3.30;1.63;;;;;;;22.44;48.23;98830.72;2090222;28;20398;-49
2022/09/24 02:51:20;;;;;;;2.85;1.10;;;;;;;22.43;48.32;98845.28;2087332;28;20048;-51
2022/09/24 02:52:22;;;;;;;2.13;1.20;;;;;;;22.43;48.18;98839.88;2092610;28;20051;-46
2022/09/24 02:53:23;;;;;;;1.80;1.13;;;;;;;22.43;48.27;98839.88;2088711;28;20076;-51
2022/09/24 02:54:25;;;;;;;;;;;;;;;22.30;48.52;98843.53;2092373;28;21016;-49
2022/09/24 02:55:26;;;;;;;3.25;1.27;;;;;;;22.34;48.44;98843.91;2089265;28;20007;-56
2022/09/24 02:56:27;;;;;;;2.47;1.85;;;;;;;22.36;48.51;98841.81;2086579;28;20607;-50
2022/09/24 02:57:28;;;;;;;2.38;1.50;;;;;;;22.36;48.35;98839.09;2090835;28;20047;-52
2022/09/24 02:58:31;;;;;;;5.03;1.45;;;;;;;22.39;48.33;98838.66;2091016;28;20134;-52
2022/09/24 02:59:32;;;;;;;4.00;1.75;;;;;;;22.40;48.29;98839.47;2082889;28;20052;-52
2022/09/24 03:00:33;;;;;;;;;;;;;;;22.30;48.56;98846.22;2086695;28;20062;-55
2022/09/24 03:01:35;;;;;;;;;;;;;;;22.23;48.77;98847.34;2089650;28;19982;-53
2022/09/24 03:02:37;;;;;;;2.70;1.58;;;;;;;22.29;48.67;98850.00;2086754;28;19928;-47
2022/09/24 03:03:38;;;;;;;1.40;1.13;;;;;;;22.34;48.48;98852.00;2091974;28;22145;-50
2022/09/24 03:04:40;;;;;;;3.00;1.50;;;;;;;22.36;48.56;98847.22;2091896;28;20710;-52
2022/09/24 03:05:40;;;;;;;6.07;1.52;;;;;;;22.39;48.24;98854.88;2085688;28;20059;-52
2022/09/24 03:06:42;;;;;;;1.85;1.10;;;;;;;22.39;48.26;98844.06;2092610;28;20134;-52
2022/09/24 03:07:43;;;;;;;2.25;1.08;;;;;;;22.40;48.27;98839.47;2091298;28;20079;-53
2022/09/24 03:08:45;;;;;;;2.85;1.40;;;;;;;22.38;48.27;98841.59;2091901;28;20071;-48
2022/09/24 03:09:46;;;;;;;2.30;1.70;;;;;;;22.38;48.37;98847.81;2090792;28;20523;-48
2022/09/24 03:10:50;;;;;;;;;;;;;;;22.27;48.60;98843.97;2087223;28;20052;-51
2022/09/24 03:11:51;;;;;;;2.00;1.35;;;;;;;22.32;48.55;98851.44;2087955;28;19959;-45
2022/09/24 03:12:52;;;;;;;2.15;1.38;;;;;;;22.35;48.37;98847.44;2090137;28;20477;-51
2022/09/24 03:13:53;;;;;;;2.72;1.50;;;;;;;22.36;48.44;98849.91;2087557;28;20051;-52
2022/09/24 03:14:55;;;;;;;1.80;1.13;;;;;;;22.38;48.22;98849.72;2089076;28;20088;-51
2022/09/24 03:15:56;;;;;;;2.50;1.48;;;;;;;22.38;48.21;98838.91;2090616;28;20117;-52
2022/09/24 03:16:59;;;;;;;2.08;1.15;;;;;;;22.40;48.43;98844.88;2084984;28;20044;-50
2022/09/24 03:18:00;;;;;;;1.70;1.25;;;;;;;22.38;48.25;98847.81;2091909;28;20055;-51
2022/09/24 03:19:01;;;;;;;2.03;1.08;;;;;;;22.38;48.28;98831.59;2089269;28;20055;-48
2022/09/24 03:20:03;;;;;;;2.80;1.45;;;;;;;22.39;48.11;98838.66;2089608;28;20044;-47
2022/09/24 03:21:07;;;;;;;1.98;1.42;;;;;;;22.37;48.44;98835.38;2089048;28;20052;-51
2022/09/24 03:22:08;;;;;;;2.08;1.02;;;;;;;22.36;48.19;98833.69;2091028;28;20055;-50
2022/09/24 03:23:09;;;;;;;3.20;1.33;;;;;;;22.37;48.23;98835.38;2094034;28;20048;-51
2022/09/24 03:24:10;;;;;;;2.30;1.10;;;;;;;22.37;48.29;98840.78;2086539;28;20052;-51
2022/09/24 03:25:12;;;;;;;;;;;;;;;22.27;48.41;98840.44;2088901;28;20048;-50
2022/09/24 03:26:12;;;;;;;;;;;;;;;22.21;48.71;98844.03;2092379;28;19935;-54
2022/09/24 03:27:15;;;;;;;1.73;1.00;;;;;;;22.26;48.74;98849.63;2090178;28;20282;-46
2022/09/24 03:28:16;;;;;;;1.70;1.02;;;;;;;22.30;48.68;98846.22;2089740;28;20107;-53
2022/09/24 03:30:58;;;;;;;2.42;1.58;;;;;;;22.33;48.37;98844.13;2091292;28;20430;-55
2022/09/24 03:31:59;;;;;;;2.78;1.33;;;;;;;22.31;48.64;98849.75;2081717;28;20143;-52
2022/09/24 03:33:01;;;;;;;1.45;0.95;;;;;;;22.33;48.44;98850.38;2080429;28;20051;-56
2022/09/24 03:34:01;;;;;;;2.55;1.17;;;;;;;22.34;48.38;98840.38;2081922;28;20064;-55
2022/09/24 03:35:04;;;;;;;1.60;1.20;;;;;;;22.34;48.42;98846.59;2084075;28;20046;-50
2022/09/24 03:36:08;;;;;;;4.05;1.20;;;;;;;22.33;48.39;98842.25;2085328;28;20056;-52
2022/09/24 03:37:08;;;;;;;2.63;1.02;;;;;;;22.34;48.64;98840.38;2085822;28;20067;-44
2022/09/24 03:38:10;;;;;;;3.20;1.38;;;;;;;22.35;48.35;98845.56;2088098;28;20078;-51
2022/09/24 03:39:11;;;;;;;1.73;1.10;;;;;;;22.34;48.45;98835.78;2085475;28;20053;-49
2022/09/24 03:40:13;;;;;;;1.65;0.80;;;;;;;22.34;48.37;98846.59;2081100;28;21460;-56
2022/09/24 03:41:14;;;;;;;2.75;1.23;;;;;;;22.34;48.33;98841.19;2082030;28;20465;-53
2022/09/24 03:42:16;;;;;;;2.75;1.20;;;;;;;22.35;48.23;98842.03;2084601;28;20435;-47
2022/09/24 03:43:17;;;;;;;2.15;1.45;;;;;;;22.34;48.32;98841.19;2086432;28;20514;-53
2022/09/24 03:44:19;;;;;;;2.95;1.10;;;;;;;22.34;48.34;98835.78;2089349;28;20051;-52
2022/09/24 03:45:19;;;;;;;2.50;1.23;;;;;;;22.34;48.34;98843.91;2082742;28;20045;-52
2022/09/24 03:46:26;;;;;;;5.95;1.02;;;;;;;22.35;48.30;98836.63;2081529;28;20057;-47
2022/09/24 03:47:30;;;;;;;1.95;1.30;;;;;;;22.34;48.28;98838.50;2087029;28;20049;-51
2022/09/24 03:48:32;;;;;;;1.27;0.80;;;;;;;22.33;48.23;98834.16;2085134;28;20066;-54
2022/09/24 03:49:33;;;;;;;2.40;1.50;;;;;;;22.33;48.44;98828.75;2088371;28;20040;-53
2022/09/24 03:50:36;;;;;;;2.65;1.20;;;;;;;22.34;48.33;98822.28;2087712;28;20045;-55
2022/09/24 03:51:37;;;;;;;2.60;1.45;;;;;;;22.34;48.23;98824.97;2092208;28;20090;-51
2022/09/24 03:52:38;;;;;;;1.40;0.80;;;;;;;22.32;48.49;98824.41;2093229;28;20133;-46
2022/09/24 03:53:40;;;;;;;1.70;1.17;;;;;;;22.32;48.46;98826.28;2091314;28;20048;-47
2022/09/24 03:54:41;;;;;;;2.28;1.10;;;;;;;22.33;48.54;98817.13;2089207;28;20137;-55
2022/09/24 03:55:44;;;;;;;1.88;1.27;;;;;;;22.33;48.31;98822.53;2091364;28;20051;-49
2022/09/24 03:56:45;;;;;;;2.05;1.25;;;;;;;22.31;48.51;98820.03;2092628;28;20044;-44
2022/09/24 03:57:46;;;;;;;1.38;1.15;;;;;;;22.30;48.49;98823.78;2090565;28;20052;-49
2022/09/24 03:58:48;;;;;;;1.80;1.50;;;;;;;22.32;48.29;98821.69;2092671;28;20048;-52
2022/09/24 03:59:51;;;;;;;3.40;1.30;;;;;;;22.32;48.33;98821.69;2094323;28;20052;-51
2022/09/24 04:00:53;;;;;;;2.47;0.80;;;;;;;22.32;48.34;98821.69;2092362;28;20201;-46
2022/09/24 04:01:54;;;;;;;2.17;1.25;;;;;;;22.32;48.39;98810.88;2088788;28;20144;-45
2022/09/24 04:02:57;;;;;;;1.80;1.30;;;;;;;22.32;48.33;98808.19;2090422;28;20055;-53
2022/09/24 04:03:59;;;;;;;1.27;1.02;;;;;;;22.33;48.23;98806.31;2092009;28;20476;-51
2022/09/24 04:05:01;;;;;;;1.90;1.20;;;;;;;22.32;48.47;98820.88;2090592;28;20040;-51
2022/09/24 04:06:02;;;;;;;1.48;0.90;;;;;;;22.32;48.39;98813.59;2094087;28;20158;-50
2022/09/24 04:07:04;;;;;;;1.50;0.93;;;;;;;22.32;48.30;98818.19;2091037;28;20925;-45
2022/09/24 04:08:05;;;;;;;1.90;1.20;;;;;;;22.32;48.46;98820.88;2095172;28;20055;-50
2022/09/24 04:09:06;;;;;;;1.85;1.27;;;;;;;22.32;48.38;98818.19;2094849;28;20056;-53
2022/09/24 04:10:08;;;;;;;2.33;1.20;;;;;;;22.31;48.34;98817.31;2092976;28;20048;-46
2022/09/24 04:11:10;;;;;;;1.95;1.02;;;;;;;22.33;48.41;98811.72;2091422;28;20567;-48
2022/09/24 04:12:12;;;;;;;2.83;0.95;;;;;;;22.31;48.34;98814.63;2086554;28;20082;-52
2022/09/24 04:13:13;;;;;;;3.20;1.08;;;;;;;22.30;48.42;98819.22;2091545;28;20040;-46
2022/09/24 04:14:14;;;;;;;0.95;0.77;;;;;;;22.33;48.47;98822.53;2089946;28;20051;-54
2022/09/24 04:15:17;;;;;;;1.83;0.90;;;;;;;22.30;48.44;98819.22;2093528;28;20048;-50
2022/09/24 04:16:17;;;;;;;2.08;0.95;;;;;;;22.32;48.42;98816.28;2093043;28;20048;-52
2022/09/24 04:17:19;;;;;;;1.42;0.90;;;;;;;22.31;48.32;98825.44;2090107;28;20055;-49
2022/09/24 04:18:21;;;;;;;2.28;1.33;;;;;;;22.32;48.44;98820.88;2091047;28;20049;-53
2022/09/24 04:19:24;;;;;;;1.40;1.10;;;;;;;22.29;48.35;98819.44;2091049;28;20076;-52
2022/09/24 04:20:27;;;;;;;1.38;0.98;;;;;;;22.30;48.34;98823.78;2090757;28;20736;-52
2022/09/24 04:21:29;;;;;;;1.55;1.10;;;;;;;22.28;48.35;98815.06;2092455;28;20040;-45
2022/09/24 04:22:30;;;;;;;2.67;1.42;;;;;;;22.28;48.41;98817.78;2094154;28;20048;-48
2022/09/24 04:23:32;;;;;;;1.63;1.10;;;;;;;22.26;48.45;98815.31;2094466;28;20068;-48
2022/09/24 04:24:33;;;;;;;5.20;0.93;;;;;;;22.29;48.34;98822.16;2090095;28;20044;-52
2022/09/24 04:25:36;;;;;;;1.95;1.05;;;;;;;22.28;48.43;98815.06;2090439;28;20139;-52
2022/09/24 04:26:36;;;;;;;1.80;0.80;;;;;;;22.28;48.44;98817.78;2086090;28;20048;-53
2022/09/24 04:27:40;;;;;;;1.23;0.85;;;;;;;22.28;48.27;98812.38;2092737;28;20139;-52
2022/09/24 04:28:41;;;;;;;1.27;0.98;;;;;;;22.27;48.58;98802.63;2087539;28;20138;-51
2022/09/24 04:29:43;;;;;;;2.72;1.25;;;;;;;22.28;48.30;98796.16;2087759;28;20052;-51
2022/09/24 04:30:43;;;;;;;1.88;1.30;;;;;;;22.26;48.51;98798.28;2091520;28;20074;-54
2022/09/24 04:31:45;;;;;;;1.20;0.88;;;;;;;22.26;48.50;98792.88;2094364;28;20064;-49
2022/09/24 04:32:46;;;;;;;1.17;0.90;;;;;;;22.26;48.52;98796.41;2093127;28;20052;-51
2022/09/24 04:33:49;;;;;;;2.28;0.90;;;;;;;22.27;48.51;98791.81;2092274;28;20140;-51
2022/09/24 04:34:50;;;;;;;1.75;0.88;;;;;;;22.27;48.36;98797.22;2094436;28;20052;-47
2022/09/24 04:35:52;;;;;;;2.10;1.17;;;;;;;22.27;48.51;98789.13;2092723;28;20601;-47
2022/09/24 04:36:52;;;;;;;2.42;0.93;;;;;;;22.26;48.58;98785.59;2095706;28;20097;-51
2022/09/24 04:37:54;;;;;;;1.33;0.90;;;;;;;22.27;48.43;98775.59;2094295;28;20048;-50
2022/09/24 04:38:56;;;;;;;1.40;0.85;;;;;;;22.28;48.31;98785.34;2096864;28;20048;-44
2022/09/24 04:39:58;;;;;;;1.23;0.70;;;;;;;22.28;48.58;98790.75;2093429;28;20051;-49
2022/09/24 04:41:05;;;;;;;1.27;0.95;;;;;;;22.26;48.45;98782.88;2089540;28;20055;-52
2022/09/24 04:42:06;;;;;;;2.60;1.20;;;;;;;22.24;48.45;98793.09;2091070;28;21606;-55
2022/09/24 04:43:08;;;;;;;1.98;0.90;;;;;;;22.26;48.51;98799.09;2090549;28;20044;-49
2022/09/24 04:44:12;;;;;;;2.53;1.08;;;;;;;22.26;48.48;98798.28;2088979;28;20056;-55
2022/09/24 04:45:16;;;;;;;2.70;1.00;;;;;;;22.25;48.47;98802.00;2091559;28;20043;-52
2022/09/24 04:46:17;;;;;;;3.20;1.13;;;;;;;22.25;48.68;98796.59;2091756;28;20091;-53
2022/09/24 04:47:19;;;;;;;1.80;0.88;;;;;;;22.24;48.61;98797.66;2095656;28;20040;-55
2022/09/24 04:48:22;;;;;;;3.30;1.30;;;;;;;22.25;48.46;98800.13;2091671;28;20040;-49
2022/09/24 04:49:25;;;;;;;1.52;1.17;;;;;;;22.24;48.56;98805.78;2090948;28;20078;-55
2022/09/24 04:50:31;;;;;;;1.95;0.90;;;;;;;22.24;48.49;98808.47;2086668;28;20134;-49
2022/09/24 04:51:33;;;;;;;1.33;0.85;;;;;;;22.25;48.47;98802.00;2090138;28;20090;-48
2022/09/24 04:52:35;;;;;;;1.75;1.02;;;;;;;22.24;48.47;98803.88;2089471;28;20067;-56
2022/09/24 04:53:36;;;;;;;1.13;0.75;;;;;;;22.23;48.46;98809.50;2094321;28;20073;-55
2022/09/24 04:54:38;;;;;;;1.85;0.88;;;;;;;22.24;48.41;98808.47;2094355;28;20040;-51
2022/09/24 04:55:40;;;;;;;1.00;0.80;;;;;;;22.25;48.51;98802.00;2087003;28;20135;-50
2022/09/24 04:56:42;;;;;;;2.00;1.50;;;;;;;22.22;48.47;98803.28;2088924;28;20393;-52
2022/09/24 04:57:44;;;;;;;2.05;0.82;;;;;;;22.23;48.57;98796.00;2087838;28;20091;-52
2022/09/24 04:58:50;;;;;;;3.10;1.02;;;;;;;22.24;48.36;98797.66;2089141;28;20174;-50
2022/09/24 04:59:51;;;;;;;3.47;1.17;;;;;;;22.24;48.60;98797.66;2091906;28;20084;-49
2022/09/24 05:00:53;;;;;;;1.38;0.90;;;;;;;22.22;48.58;98795.19;2090246;28;20055;-50
2022/09/24 05:01:53;;;;;;;1.65;0.98;;;;;;;22.24;48.28;98800.38;2090027;28;20048;-52
2022/09/24 05:02:57;;;;;;;2.38;1.10;;;;;;;22.23;48.38;98807.66;2090953;28;20143;-49
2022/09/24 05:03:58;;;;;;;2.78;1.10;;;;;;;22.22;48.55;98805.97;2089707;28;20729;-50
2022/09/24 05:05:01;;;;;;;;;;;;;;;22.13;48.76;98809.19;2089017;28;20139;-51
2022/09/24 05:06:02;;;;;;;2.40;0.90;;;;;;;22.16;48.55;98808.72;2089109;28;22168;-47